NZCH/CHC METAR and TAF weather

Enter ICAO airport designator
Station Type Date Time Source
NZCH METAR 2022/01/25 04:00 UTC NOAA

NZCH 250400Z AUTO 08008KT 9999 FEW041/// 21/15 Q1005 NOSIG


Station Type Date Time Source
NZCH Decoded METAR 2022/01/25 04:00 UTC NOAA

Christchurch, New Zealand (NZCH) 43-29S 172-33E 30M
Jan 24, 2022 - 11:00 PM EST / 2022.01.25 0400 UTC
Wind: from the E (080 degrees) at 9 MPH (8 KT):0
Visibility: greater than 7 mile(s):0
Sky conditions: mostly clear
Temperature: 69 F (21 C)
Dew Point: 59 F (15 C)
Relative Humidity: 68%
Pressure (altimeter): 29.68 in. Hg (1005 hPa)
ob: NZCH 250400Z AUTO 08008KT 9999 FEW041/// 21/15 Q1005 NOSIG
cycle: 4

Station Type Date Time Source
NZCH TAF 2022/01/25 01:06 UTC NOAA

TAF
AMD NZCH 250101Z 2501/2600 09010KT 9999 FEW018
BECMG 2507/2509 VRB02KT BKN008
TEMPO 2514/2519 2000 BR BKN004
BECMG 2520/2522 07010KT SCT020

Example: see airport list